Time;durP1;ratioP1;P1;durP2;ratioP2;P2;SDS_P1;SDS_P2;PMS_P1;PMS_P2;Temp;Humidity;BMP_temperature;BMP_pressure;BME280_temperature;BME280_humidity;BME280_pressure;Samples;Min_cycle;Max_cycle;Signal;HPM_P1;HPM_P2
2021/03/03 00:01:41;;;;;;;2.10;0.55;;;;;;;0.31;52.14;99512.22;5070036;28;20458;-50
2021/03/03 00:04:07;;;;;;;2.33;0.50;;;;;;;0.22;51.96;99524.00;5081258;28;20060;-47
2021/03/03 00:06:32;;;;;;;2.72;0.50;;;;;;;0.09;52.23;99523.69;5080905;28;20378;-45
2021/03/03 00:08:58;;;;;;;1.85;0.40;;;;;;;-0.02;52.76;99525.88;5079058;28;20035;-47
2021/03/03 00:11:24;;;;;;;3.10;1.30;;;;;;;-0.38;52.69;99468.63;5076845;28;20040;-50
2021/03/03 00:13:49;;;;;;;4.57;1.38;;;;;;;-0.19;52.89;99527.47;5060891;28;20048;-44
2021/03/03 00:16:15;;;;;;;1.05;0.80;;;;;;;-0.29;52.93;99539.25;5071277;28;20036;-49
2021/03/03 00:18:46;;;;;;;1.98;0.40;;;;;;;-0.44;53.34;99510.03;5070150;28;20111;-44
2021/03/03 00:21:12;;;;;;;1.98;0.63;;;;;;;-0.42;52.57;99528.38;5078243;28;20120;-45
2021/03/03 00:23:37;;;;;;;1.42;0.40;;;;;;;-0.49;53.05;99522.50;5073595;28;20032;-47
2021/03/03 00:26:03;;;;;;;0.75;0.40;;;;;;;-0.52;53.03;99527.06;5061197;28;20692;-46
2021/03/03 00:28:28;;;;;;;1.00;0.40;;;;;;;-0.59;52.48;99543.06;5067743;28;20059;-46
2021/03/03 00:30:54;;;;;;;1.67;0.35;;;;;;;-0.64;52.59;99544.16;5076436;28;20028;-44
2021/03/03 00:33:19;;;;;;;2.60;0.85;;;;;;;-0.76;52.63;99530.56;5073788;28;20039;-49
2021/03/03 00:35:45;;;;;;;1.75;0.50;;;;;;;-0.80;52.63;99539.50;5086552;28;20094;-44
2021/03/03 00:38:10;;;;;;;2.60;0.63;;;;;;;-1.21;53.26;99473.59;5060789;28;20082;-45
2021/03/03 00:40:36;;;;;;;2.75;0.60;;;;;;;-1.20;53.20;99496.34;5075486;28;20032;-46
2021/03/03 00:43:02;;;;;;;2.05;0.57;;;;;;;-1.03;53.00;99527.22;5069008;28;20028;-45
2021/03/03 00:45:28;;;;;;;2.40;0.35;;;;;;;-0.92;53.11;99558.38;5079053;28;20043;-44
2021/03/03 00:47:53;;;;;;;3.20;0.50;;;;;;;-1.10;53.39;99523.09;5067632;28;20067;-46
2021/03/03 00:50:19;;;;;;;0.70;0.30;;;;;;;-1.41;53.16;99480.47;5074520;28;20602;-44
2021/03/03 00:52:44;;;;;;;2.60;0.57;;;;;;;-1.21;53.38;99524.38;5061239;28;20112;-48
2021/03/03 00:55:11;;;;;;;1.65;0.45;;;;;;;-1.07;53.48;99558.00;5074854;28;20529;-47
2021/03/03 00:57:39;;;;;;;3.45;1.17;;;;;;;-1.23;53.59;99536.72;5069418;28;20035;-45
2021/03/03 01:00:15;;;;;;;2.03;0.45;;;;;;;-1.09;53.41;99554.59;5075761;28;20105;-46
2021/03/03 01:02:40;;;;;;;1.20;0.40;;;;;;;-1.04;53.44;99554.44;5062414;28;20033;-47
2021/03/03 01:05:06;;;;;;;1.23;0.30;;;;;;;-1.07;53.24;99560.63;5068212;28;20091;-48
2021/03/03 01:07:32;;;;;;;3.60;1.02;;;;;;;-1.24;53.30;99542.00;5078210;28;20033;-49
2021/03/03 01:09:58;;;;;;;1.35;0.40;;;;;;;-1.10;53.47;99570.41;5067910;28;20481;-50
2021/03/03 01:12:23;;;;;;;2.60;0.40;;;;;;;-1.15;53.69;99554.81;5084042;28;20032;-51
2021/03/03 01:14:48;;;;;;;1.85;0.47;;;;;;;-1.13;53.69;99576.63;5057382;28;20608;-50
2021/03/03 01:17:14;;;;;;;1.05;0.38;;;;;;;-1.14;53.67;99574.94;5053625;28;20074;-45
2021/03/03 01:19:39;;;;;;;1.80;0.50;;;;;;;-1.22;54.22;99564.69;5066505;28;20032;-45
2021/03/03 01:22:05;;;;;;;2.78;0.73;;;;;;;-1.21;54.13;99589.16;5078884;28;20029;-47
2021/03/03 01:24:30;;;;;;;2.17;0.40;;;;;;;-1.23;54.43;99572.59;5072128;28;20036;-51
2021/03/03 01:26:56;;;;;;;0.82;0.32;;;;;;;-1.39;54.46;99554.78;5077041;28;20025;-48
2021/03/03 01:29:22;;;;;;;0.98;0.30;;;;;;;-1.32;54.35;99579.09;5066472;28;20044;-43
2021/03/03 01:31:48;;;;;;;2.15;0.45;;;;;;;-1.31;54.91;99591.31;5069713;28;20177;-48
2021/03/03 01:34:13;;;;;;;1.27;0.40;;;;;;;-1.41;54.73;99574.13;5080855;28;20543;-48
2021/03/03 01:36:39;;;;;;;1.10;0.40;;;;;;;-1.31;54.74;99596.56;5081406;28;20036;-45
2021/03/03 01:39:05;;;;;;;4.68;0.60;;;;;;;-1.33;54.72;99603.59;5068888;28;20055;-46
2021/03/03 01:41:30;;;;;;;2.17;0.60;;;;;;;-1.39;55.53;99593.31;5076780;28;20033;-51
2021/03/03 01:43:55;;;;;;;2.10;0.40;;;;;;;-1.34;54.84;99604.50;5067714;28;20127;-49
2021/03/03 01:46:22;;;;;;;3.35;0.43;;;;;;;-1.32;55.49;99615.84;5083686;28;20025;-46
2021/03/03 01:48:47;;;;;;;2.55;0.30;;;;;;;-1.47;54.93;99588.31;5074634;28;20503;-52
2021/03/03 01:51:13;;;;;;;2.22;0.43;;;;;;;-1.38;55.39;99601.16;5077759;28;20040;-48
2021/03/03 01:53:39;;;;;;;5.22;0.40;;;;;;;-1.39;55.52;99615.19;5066344;28;20092;-46
2021/03/03 01:56:04;;;;;;;0.85;0.50;;;;;;;-1.40;55.50;99612.59;5084360;28;20077;-49
2021/03/03 01:58:30;;;;;;;2.97;0.50;;;;;;;-1.42;55.62;99604.81;5066629;28;20376;-49
2021/03/03 02:00:55;;;;;;;1.48;0.60;;;;;;;-1.45;55.48;99616.25;5075823;28;20495;-51
2021/03/03 02:03:21;;;;;;;0.88;0.52;;;;;;;-1.47;56.21;99598.84;5057061;28;20067;-47
2021/03/03 02:05:50;;;;;;;1.50;0.60;;;;;;;-1.84;56.27;99537.94;5071735;28;20044;-45
2021/03/03 02:08:47;;;;;;;2.85;0.65;;;;;;;-1.48;56.74;99607.63;5082434;28;20032;-46
2021/03/03 02:11:37;;;;;;;0.70;0.30;;;;;;;-1.54;56.35;99608.72;5073343;28;20094;-44
2021/03/03 02:14:06;;;;;;;1.10;0.25;;;;;;;-1.60;56.47;99608.91;5067638;28;20103;-49
2021/03/03 02:16:35;;;;;;;0.90;0.35;;;;;;;-1.67;56.57;99599.53;5061263;28;20093;-48
2021/03/03 02:19:01;;;;;;;1.40;0.40;;;;;;;-1.63;56.28;99607.25;5077315;28;20034;-47
2021/03/03 02:21:37;;;;;;;0.85;0.30;;;;;;;-1.62;56.79;99619.47;5075609;28;20127;-47
2021/03/03 02:24:07;;;;;;;1.33;0.30;;;;;;;-1.63;56.77;99619.50;5068294;28;20037;-45
2021/03/03 02:26:34;;;;;;;1.00;0.40;;;;;;;-1.68;56.37;99600.44;5081907;28;20067;-45
2021/03/03 02:29:06;;;;;;;3.40;0.40;;;;;;;-1.70;56.25;99594.38;5068334;28;20032;-50
2021/03/03 02:31:33;;;;;;;2.13;0.60;;;;;;;-1.91;55.95;99563.56;5072706;28;20082;-43
2021/03/03 02:34:01;;;;;;;1.15;0.50;;;;;;;-1.55;56.52;99616.63;5060786;28;20446;-48
2021/03/03 02:36:28;;;;;;;1.13;0.47;;;;;;;-1.62;56.09;99608.97;5083668;28;20036;-46
2021/03/03 02:38:53;;;;;;;0.77;0.35;;;;;;;-1.54;56.36;99631.47;5071989;28;20029;-44
2021/03/03 02:41:19;;;;;;;2.58;0.60;;;;;;;-1.53;56.29;99643.69;5083437;28;20046;-47
2021/03/03 02:43:45;;;;;;;1.30;0.45;;;;;;;-1.55;56.35;99638.50;5070601;28;20396;-47
2021/03/03 02:46:11;;;;;;;1.55;0.50;;;;;;;-1.96;55.95;99578.59;5068837;28;20060;-47
2021/03/03 02:48:38;;;;;;;1.70;0.50;;;;;;;-1.68;56.47;99610.94;5063599;28;20074;-45
2021/03/03 02:51:04;;;;;;;0.52;0.38;;;;;;;-1.47;55.77;99630.34;5082806;28;20024;-49
2021/03/03 02:53:29;;;;;;;1.05;0.50;;;;;;;-1.41;55.47;99629.28;5070645;28;20380;-52
2021/03/03 02:55:55;;;;;;;3.38;0.50;;;;;;;-1.41;55.33;99627.53;5086800;28;20085;-45
2021/03/03 02:58:21;;;;;;;1.70;0.60;;;;;;;-1.62;55.20;99619.47;5065311;28;20024;-48
2021/03/03 03:00:48;;;;;;;0.80;0.30;;;;;;;-1.36;54.92;99629.97;5078848;28;20051;-46
2021/03/03 03:03:27;;;;;;;0.95;0.45;;;;;;;-1.32;55.43;99616.69;5069917;28;20056;-45
2021/03/03 03:06:07;;;;;;;1.13;0.40;;;;;;;-1.54;54.93;99594.72;5078471;28;20044;-48
2021/03/03 03:08:35;;;;;;;1.50;0.60;;;;;;;-1.33;55.52;99632.50;5082966;28;20032;-48
2021/03/03 03:11:03;;;;;;;1.52;0.32;;;;;;;-1.37;55.14;99618.63;5065018;28;20115;-48
2021/03/03 03:13:30;;;;;;;6.78;0.60;;;;;;;-1.25;55.32;99616.47;5065946;28;20028;-49
2021/03/03 03:15:56;;;;;;;1.60;0.52;;;;;;;-1.11;54.21;99622.09;5068456;28;20041;-47
2021/03/03 03:18:27;;;;;;;0.90;0.32;;;;;;;-1.13;54.48;99631.81;5061204;28;20519;-52
2021/03/03 03:20:54;;;;;;;1.20;0.50;;;;;;;-1.13;54.57;99625.69;5078865;28;20039;-45
2021/03/03 03:23:22;;;;;;;1.63;0.75;;;;;;;-1.26;54.15;99594.63;5062926;28;20117;-46
2021/03/03 03:25:49;;;;;;;1.35;0.52;;;;;;;-1.20;54.26;99612.78;5073196;28;20044;-45
2021/03/03 03:28:16;;;;;;;3.25;0.40;;;;;;;-1.22;53.98;99633.00;5070614;28;20087;-47
2021/03/03 03:30:43;;;;;;;2.65;0.50;;;;;;;-1.28;54.10;99643.72;5079520;28;20129;-44
2021/03/03 03:33:10;;;;;;;2.42;0.63;;;;;;;-1.32;54.86;99642.97;5074241;28;20115;-43
2021/03/03 03:35:37;;;;;;;1.52;0.50;;;;;;;-1.46;54.67;99634.69;5066478;28;20080;-47
2021/03/03 03:38:03;;;;;;;1.75;0.40;;;;;;;-1.42;54.58;99641.56;5067604;28;20043;-48
2021/03/03 03:40:29;;;;;;;2.85;0.70;;;;;;;-1.46;55.07;99658.31;5079105;28;20036;-46
2021/03/03 03:42:55;;;;;;;2.55;0.60;;;;;;;-1.50;55.25;99654.09;5077568;28;20024;-51
2021/03/03 03:45:23;;;;;;;1.25;0.50;;;;;;;-1.53;54.57;99651.56;5073788;28;20096;-51
2021/03/03 03:47:48;;;;;;;1.35;0.40;;;;;;;-2.00;54.94;99569.09;5059866;28;20033;-43
2021/03/03 03:50:15;;;;;;;1.85;0.45;;;;;;;-1.59;54.95;99643.00;5074826;28;20453;-45
2021/03/03 03:52:41;;;;;;;2.88;0.50;;;;;;;-1.66;54.72;99646.75;5078170;28;20039;-45
2021/03/03 03:55:07;;;;;;;1.85;0.35;;;;;;;-1.66;55.20;99635.38;5077096;28;20474;-46
2021/03/03 03:58:02;;;;;;;1.73;0.40;;;;;;;-1.55;54.41;99635.00;5070893;28;20028;-47
2021/03/03 04:00:29;;;;;;;1.88;0.65;;;;;;;-1.61;54.53;99639.56;5064342;28;20055;-46
2021/03/03 04:02:56;;;;;;;1.73;0.50;;;;;;;-1.67;54.45;99650.28;5066093;28;20399;-46
2021/03/03 04:05:22;;;;;;;1.75;0.50;;;;;;;-1.72;55.02;99646.91;5069341;28;20500;-47
2021/03/03 04:07:48;;;;;;;3.15;0.80;;;;;;;-1.67;54.70;99652.91;5071456;28;20044;-45
2021/03/03 04:10:16;;;;;;;3.85;0.43;;;;;;;-2.17;54.90;99575.78;5070446;28;20028;-46
2021/03/03 04:12:42;;;;;;;0.80;0.50;;;;;;;-1.89;54.73;99642.22;5067737;28;20107;-44
2021/03/03 04:15:08;;;;;;;2.75;0.50;;;;;;;-1.67;54.15;99663.41;5061227;28;20484;-44
2021/03/03 04:17:35;;;;;;;1.45;0.38;;;;;;;-1.67;54.55;99662.53;5063031;28;20063;-46
2021/03/03 04:20:01;;;;;;;1.65;0.38;;;;;;;-1.70;53.95;99671.34;5060560;28;20037;-44
2021/03/03 04:22:26;;;;;;;1.15;0.40;;;;;;;-2.11;54.32;99586.97;5075972;28;20032;-44
2021/03/03 04:24:52;;;;;;;2.30;0.65;;;;;;;-1.68;54.31;99666.94;5082412;28;20062;-44
2021/03/03 04:27:17;;;;;;;2.63;0.60;;;;;;;-2.12;53.69;99593.97;5059569;28;20043;-45
2021/03/03 04:29:43;;;;;;;1.77;0.43;;;;;;;-1.71;53.67;99653.03;5070222;28;20484;-46
2021/03/03 04:32:08;;;;;;;2.97;0.50;;;;;;;-1.78;53.56;99640.13;5074278;28;20159;-46
2021/03/03 04:34:34;;;;;;;2.17;0.60;;;;;;;-1.86;53.95;99633.41;5082709;28;20440;-43
2021/03/03 04:36:59;;;;;;;2.25;0.65;;;;;;;-1.78;53.38;99631.38;5076432;28;20034;-50
2021/03/03 04:39:25;;;;;;;1.45;0.60;;;;;;;-1.59;53.70;99660.50;5065129;28;20036;-44
2021/03/03 04:41:50;;;;;;;3.25;0.50;;;;;;;-1.56;53.22;99675.31;5065164;28;20393;-45
2021/03/03 04:44:16;;;;;;;2.25;0.88;;;;;;;-1.82;53.22;99609.63;5067991;28;20432;-49
2021/03/03 04:46:42;;;;;;;3.30;0.70;;;;;;;-1.86;53.11;99599.28;5055809;28;20036;-50
2021/03/03 04:49:07;;;;;;;1.50;0.85;;;;;;;-1.33;52.58;99679.78;5058635;28;20481;-47
2021/03/03 04:51:35;;;;;;;1.15;0.47;;;;;;;-1.40;52.40;99654.63;5062859;28;20064;-44
2021/03/03 04:54:02;;;;;;;1.98;0.50;;;;;;;-1.18;51.49;99655.63;5078423;28;20140;-43
2021/03/03 04:56:27;;;;;;;5.07;0.82;;;;;;;-1.06;51.68;99683.22;5080985;28;20040;-47
2021/03/03 04:58:53;;;;;;;0.93;0.57;;;;;;;-1.01;51.10;99686.53;5061348;28;20405;-46
2021/03/03 05:01:18;;;;;;;1.38;0.70;;;;;;;-1.03;51.44;99677.84;5075565;28;20107;-47
2021/03/03 05:03:44;;;;;;;1.77;0.77;;;;;;;-0.47;50.25;99683.78;5067209;28;20505;-46
2021/03/03 05:06:09;;;;;;;2.00;0.80;;;;;;;1.29;47.23;99663.44;5065839;28;20548;-46
2021/03/03 05:08:35;;;;;;;2.80;0.73;;;;;;;2.80;42.53;99617.53;5084182;28;20131;-44
2021/03/03 05:11:00;;;;;;;2.72;0.70;;;;;;;4.59;39.71;99666.06;5071164;28;20030;-45
2021/03/03 05:13:26;;;;;;;1.58;0.80;;;;;;;5.69;38.27;99670.09;5059038;28;20037;-45
2021/03/03 05:15:51;;;;;;;2.38;0.70;;;;;;;6.63;36.68;99672.97;5059516;28;20036;-46
2021/03/03 05:18:16;;;;;;;1.42;0.90;;;;;;;7.28;34.98;99610.00;5065206;28;20450;-48
2021/03/03 05:20:42;;;;;;;2.83;0.85;;;;;;;8.66;33.40;99657.88;5078222;28;20028;-47
2021/03/03 05:23:07;;;;;;;1.02;0.60;;;;;;;9.93;30.92;99668.59;5058767;28;20442;-45
2021/03/03 05:25:34;;;;;;;1.85;1.00;;;;;;;11.43;28.66;99657.13;5063077;28;20029;-50
2021/03/03 05:28:00;;;;;;;1.83;1.00;;;;;;;12.68;27.17;99652.38;5067899;28;20044;-47
2021/03/03 05:30:26;;;;;;;2.15;1.00;;;;;;;14.12;25.35;99652.22;5057076;28;20036;-51
2021/03/03 05:32:52;;;;;;;1.73;0.90;;;;;;;15.09;23.80;99651.63;5062058;28;20063;-48
2021/03/03 05:35:18;;;;;;;3.45;1.00;;;;;;;15.97;22.39;99651.59;5061143;28;20072;-47
2021/03/03 05:37:44;;;;;;;2.90;0.85;;;;;;;16.86;21.56;99656.44;5061168;28;20127;-53
2021/03/03 05:40:11;;;;;;;1.67;0.68;;;;;;;17.78;20.16;99655.31;5074681;28;20491;-45
2021/03/03 05:42:36;;;;;;;3.90;1.00;;;;;;;18.51;19.79;99666.81;5063093;28;20123;-50
2021/03/03 05:45:06;;;;;;;1.90;1.00;;;;;;;19.01;17.79;99660.19;5079153;28;20118;-49
2021/03/03 05:47:34;;;;;;;5.53;0.93;;;;;;;19.71;18.19;99662.69;5068970;28;20040;-48
2021/03/03 05:50:02;;;;;;;2.55;1.00;;;;;;;20.43;17.21;99652.94;5084073;28;20483;-53
2021/03/03 05:52:32;;;;;;;1.77;1.00;;;;;;;20.87;16.30;99652.97;5067152;28;20031;-48
2021/03/03 05:55:00;;;;;;;3.22;1.20;;;;;;;21.13;15.83;99652.38;5077524;28;20035;-47
2021/03/03 05:57:26;;;;;;;3.10;1.13;;;;;;;21.17;15.74;99609.25;5058748;28;20044;-46
2021/03/03 06:00:12;;;;;;;1.95;1.13;;;;;;;22.57;15.10;99651.00;5057426;28;20194;-45
2021/03/03 06:02:38;;;;;;;2.90;1.20;;;;;;;23.31;14.39;99651.88;5059130;28;20082;-49
2021/03/03 06:05:04;;;;;;;4.53;0.90;;;;;;;23.67;13.88;99665.28;5059932;28;20048;-44
2021/03/03 06:07:31;;;;;;;2.58;0.98;;;;;;;23.59;13.81;99608.97;5057658;28;20033;-51
2021/03/03 06:09:56;;;;;;;2.22;1.10;;;;;;;24.00;12.88;99599.56;5065409;28;20045;-45
2021/03/03 06:12:22;;;;;;;2.55;1.10;;;;;;;24.98;12.49;99647.81;5057659;28;20024;-51
2021/03/03 06:14:47;;;;;;;2.60;1.10;;;;;;;25.41;12.28;99646.13;5060011;28;20078;-45
2021/03/03 06:17:13;;;;;;;2.05;1.00;;;;;;;25.24;12.21;99649.47;5072154;28;20077;-50
2021/03/03 06:19:39;;;;;;;2.88;1.20;;;;;;;25.95;12.04;99643.69;5060366;28;20106;-48
2021/03/03 06:22:40;;;;;;;3.25;1.05;;;;;;;27.76;10.94;99640.00;5066239;28;20119;-56
2021/03/03 06:25:20;;;;;;;2.60;1.10;;;;;;;27.75;10.88;99645.75;5076095;28;20036;-51
2021/03/03 06:27:48;;;;;;;2.25;1.17;;;;;;;27.95;10.56;99639.81;5058123;28;20053;-49
2021/03/03 06:30:16;;;;;;;2.33;1.00;;;;;;;28.27;10.10;99644.06;5079704;28;20051;-49
2021/03/03 06:32:55;;;;;;;3.75;0.90;;;;;;;28.82;10.16;99598.53;5064184;28;20040;-54
2021/03/03 06:35:22;;;;;;;1.33;0.98;;;;;;;29.37;9.46;99640.13;5063748;28;20032;-46
2021/03/03 06:37:55;;;;;;;1.83;1.05;;;;;;;29.51;8.57;99635.13;5064652;28;20033;-47
2021/03/03 06:40:23;;;;;;;3.50;0.87;;;;;;;29.75;9.04;99632.13;5057817;28;20044;-54
2021/03/03 06:42:49;;;;;;;2.10;1.10;;;;;;;30.00;8.81;99639.06;5066057;28;20036;-54
2021/03/03 06:45:29;;;;;;;1.48;1.00;;;;;;;30.63;8.05;99646.97;5067161;28;20039;-52
2021/03/03 06:47:56;;;;;;;1.25;0.93;;;;;;;30.56;8.42;99647.16;5071266;28;20032;-48
2021/03/03 06:50:31;;;;;;;1.95;0.90;;;;;;;30.96;7.94;99650.56;5086042;28;20035;-45
2021/03/03 06:52:57;;;;;;;1.40;0.93;;;;;;;31.22;7.88;99639.72;5070676;28;20480;-56
2021/03/03 06:55:23;;;;;;;3.00;1.13;;;;;;;31.48;8.00;99643.50;5066300;28;20031;-52
2021/03/03 06:57:48;;;;;;;1.92;1.00;;;;;;;31.82;7.64;99658.06;5061075;28;20040;-47
2021/03/03 07:00:15;;;;;;;2.10;1.00;;;;;;;32.00;7.38;99648.44;5067029;28;20489;-51
2021/03/03 07:02:43;;;;;;;2.33;1.10;;;;;;;32.26;7.25;99641.06;5067427;28;20051;-47
2021/03/03 07:05:10;;;;;;;1.88;1.08;;;;;;;32.21;7.17;99641.88;5063080;28;20579;-51
2021/03/03 07:07:36;;;;;;;1.65;1.10;;;;;;;32.38;6.74;99657.47;5067289;28;20040;-51
2021/03/03 07:10:03;;;;;;;2.17;1.15;;;;;;;32.62;6.79;99645.84;5041332;28;20521;-47
2021/03/03 07:12:32;;;;;;;2.25;0.95;;;;;;;32.74;6.39;99646.41;5067765;28;20043;-49
2021/03/03 07:15:00;;;;;;;2.63;1.15;;;;;;;32.60;6.73;99648.88;5060286;28;20036;-48
2021/03/03 07:17:36;;;;;;;1.70;1.50;;;;;;;33.21;6.08;99647.25;5065577;28;20044;-47
2021/03/03 07:20:12;;;;;;;1.20;0.90;;;;;;;33.24;6.62;99636.72;5037158;28;20474;-49
2021/03/03 07:22:39;;;;;;;6.50;1.00;;;;;;;33.42;6.17;99633.38;5036842;28;20048;-54
2021/03/03 07:25:07;;;;;;;1.60;0.98;;;;;;;33.74;5.55;99632.16;5070007;28;20060;-48
2021/03/03 07:27:34;;;;;;;5.75;1.17;;;;;;;33.27;5.94;99644.47;5063897;28;20056;-52
2021/03/03 07:30:06;;;;;;;1.90;0.98;;;;;;;33.78;6.07;99632.44;5073601;28;20045;-64
2021/03/03 07:32:32;;;;;;;1.75;1.27;;;;;;;33.98;5.76;99630.69;5064991;28;20032;-63
2021/03/03 07:34:58;;;;;;;3.05;1.25;;;;;;;33.87;6.01;99627.94;5064479;28;20062;-63
2021/03/03 07:37:31;;;;;;;2.17;1.00;;;;;;;33.30;6.05;99633.66;5064561;28;20611;-60
2021/03/03 07:40:05;;;;;;;2.90;1.15;;;;;;;33.52;5.82;99632.53;5051949;28;20043;-66
2021/03/03 07:42:32;;;;;;;2.75;1.13;;;;;;;33.48;6.01;99628.63;5064835;28;20526;-67
2021/03/03 07:45:00;;;;;;;2.72;1.38;;;;;;;32.65;6.40;99634.22;5062954;28;20051;-53
2021/03/03 07:47:33;;;;;;;1.42;1.10;;;;;;;32.33;6.27;99636.09;5076377;28;20042;-52
2021/03/03 07:50:07;;;;;;;3.28;1.40;;;;;;;32.08;6.50;99629.38;5086440;28;20114;-53
2021/03/03 07:52:34;;;;;;;1.98;1.08;;;;;;;31.49;6.98;99614.72;5060193;28;20032;-55
2021/03/03 07:55:00;;;;;;;2.45;1.23;;;;;;;30.92;6.85;99627.31;5082778;28;20028;-57
2021/03/03 07:57:28;;;;;;;3.40;1.15;;;;;;;29.18;7.72;99639.59;5085337;28;20028;-55
2021/03/03 07:59:55;;;;;;;2.85;1.00;;;;;;;27.19;8.81;99643.34;5071619;28;20053;-55
2021/03/03 08:02:41;;;;;;;2.90;1.27;;;;;;;24.68;10.44;99649.25;5088341;28;20036;-56
2021/03/03 08:05:07;;;;;;;4.07;1.38;;;;;;;21.86;12.49;99651.16;5072499;28;20648;-51
2021/03/03 08:07:33;;;;;;;4.10;1.23;;;;;;;19.24;14.62;99656.59;5077938;28;20036;-53
2021/03/03 08:10:14;;;;;;;2.75;0.95;;;;;;;17.42;16.50;99661.19;5088506;28;20403;-52
2021/03/03 08:13:00;;;;;;;1.55;0.90;;;;;;;15.29;18.78;99686.44;5067033;28;20043;-51
2021/03/03 08:15:48;;;;;;;2.03;0.80;;;;;;;13.61;20.50;99675.97;5078307;28;20036;-50
2021/03/03 08:18:15;;;;;;;1.38;0.82;;;;;;;12.25;21.76;99674.09;5075202;28;20407;-51
2021/03/03 08:20:48;;;;;;;2.08;0.80;;;;;;;11.21;23.73;99696.50;5085155;28;20452;-56
2021/03/03 08:23:32;;;;;;;2.58;1.20;;;;;;;10.47;24.91;99680.28;5082727;28;20028;-50
2021/03/03 08:26:02;;;;;;;4.95;1.02;;;;;;;9.62;25.59;99623.75;5066886;28;20033;-53
2021/03/03 08:28:33;;;;;;;2.47;1.15;;;;;;;9.17;27.80;99635.31;5086936;28;20090;-51
2021/03/03 08:31:04;;;;;;;4.82;0.90;;;;;;;8.82;28.59;99635.34;5080702;28;20032;-49
2021/03/03 08:33:52;;;;;;;2.00;0.77;;;;;;;8.71;27.87;99642.38;5075883;28;20032;-54
2021/03/03 08:36:18;;;;;;;2.33;0.75;;;;;;;8.96;27.84;99627.16;5060708;28;20063;-47
2021/03/03 08:39:09;;;;;;;2.50;1.00;;;;;;;9.00;28.23;99612.59;5076796;28;20442;-54
2021/03/03 08:41:37;;;;;;;1.58;0.88;;;;;;;9.61;27.77;99640.78;5052357;28;20044;-54
2021/03/03 08:44:13;;;;;;;4.28;1.08;;;;;;;10.27;27.63;99632.88;5085663;28;20396;-55
2021/03/03 08:46:39;;;;;;;2.05;1.00;;;;;;;10.69;26.36;99633.00;5077856;28;20580;-55
2021/03/03 08:49:25;;;;;;;2.85;1.05;;;;;;;10.95;26.97;99637.97;5080916;28;20036;-53
2021/03/03 08:52:06;;;;;;;2.05;1.15;;;;;;;10.80;27.05;99639.25;5085716;28;20500;-53
2021/03/03 08:54:43;;;;;;;3.67;0.90;;;;;;;10.15;28.01;99568.72;5060738;28;20031;-52
2021/03/03 08:57:32;;;;;;;3.40;1.17;;;;;;;10.34;27.83;99634.06;5071055;28;20032;-53
2021/03/03 08:59:58;;;;;;;1.95;1.00;;;;;;;9.96;28.35;99616.69;5073856;28;20055;-50
2021/03/03 09:02:38;;;;;;;4.93;0.88;;;;;;;10.00;29.48;99624.31;5065130;28;20044;-51
2021/03/03 09:05:10;;;;;;;2.10;1.15;;;;;;;10.11;28.89;99617.25;5079242;28;20047;-54
2021/03/03 09:07:36;;;;;;;3.35;1.23;;;;;;;9.71;28.82;99571.38;5062093;28;20519;-46
2021/03/03 09:10:15;;;;;;;2.03;1.20;;;;;;;9.80;29.09;99555.59;5075139;28;20110;-47
2021/03/03 09:12:43;;;;;;;3.45;1.33;;;;;;;10.46;28.71;99614.34;5071157;28;20041;-46
2021/03/03 09:15:12;;;;;;;2.97;1.30;;;;;;;10.66;28.43;99614.50;5064666;28;20399;-43
2021/03/03 09:17:38;;;;;;;8.30;1.90;;;;;;;10.60;28.20;99606.97;5053064;28;20413;-50
2021/03/03 09:20:08;;;;;;;4.28;1.75;;;;;;;10.62;28.66;99613.06;5075062;28;20047;-46
2021/03/03 09:22:39;;;;;;;3.88;1.25;;;;;;;10.46;29.25;99597.44;5074492;28;20193;-43
2021/03/03 09:25:04;;;;;;;2.65;1.35;;;;;;;10.53;28.55;99595.09;5066007;28;20474;-46
2021/03/03 09:27:30;;;;;;;2.70;1.45;;;;;;;10.62;28.80;99599.69;5066347;28;20068;-56
2021/03/03 09:29:56;;;;;;;6.20;1.40;;;;;;;10.72;29.05;99597.91;5059679;28;20044;-45
2021/03/03 09:32:23;;;;;;;3.72;1.40;;;;;;;10.80;28.48;99588.38;5064211;28;20040;-51
2021/03/03 09:35:04;;;;;;;3.65;1.60;;;;;;;11.00;28.74;99592.88;5059491;28;20499;-51
2021/03/03 09:37:45;;;;;;;3.05;1.27;;;;;;;10.99;29.05;99574.25;5053448;28;20097;-59
2021/03/03 09:40:16;;;;;;;5.00;1.90;;;;;;;10.61;28.92;99547.13;5027162;28;20041;-61
2021/03/03 09:42:57;;;;;;;3.17;1.17;;;;;;;10.64;28.98;99595.06;5034385;28;20039;-50
2021/03/03 09:45:24;;;;;;;3.58;1.17;;;;;;;10.39;29.53;99586.38;5058820;28;20033;-47
2021/03/03 09:47:52;;;;;;;2.33;1.15;;;;;;;10.00;29.87;99584.19;5060536;28;20041;-52
2021/03/03 09:50:21;;;;;;;4.05;1.08;;;;;;;9.42;30.83;99569.25;5058093;28;20028;-53
2021/03/03 09:52:53;;;;;;;2.55;1.10;;;;;;;9.04;31.82;99573.13;5059544;28;20037;-56
2021/03/03 09:55:23;;;;;;;2.50;1.30;;;;;;;8.73;32.15;99522.13;5060917;28;20036;-52
2021/03/03 09:57:59;;;;;;;3.55;1.10;;;;;;;8.89;32.63;99567.16;5064857;28;20104;-54
2021/03/03 10:00:30;;;;;;;3.88;0.98;;;;;;;8.58;32.63;99549.06;5065826;28;20055;-54
2021/03/03 10:03:02;;;;;;;1.73;1.17;;;;;;;8.54;32.99;99541.41;5044930;28;20041;-59
2021/03/03 10:05:31;;;;;;;3.08;1.40;;;;;;;8.54;32.85;99554.72;5063428;28;20044;-52
2021/03/03 10:08:27;;;;;;;5.50;1.50;;;;;;;8.48;33.11;99548.88;5065675;28;20040;-52
2021/03/03 10:10:55;;;;;;;2.47;1.33;;;;;;;8.67;33.00;99542.13;5064604;28;20055;-52
2021/03/03 10:13:22;;;;;;;2.30;1.13;;;;;;;8.74;32.85;99534.50;5057691;28;20040;-53
2021/03/03 10:15:48;;;;;;;3.20;1.15;;;;;;;9.03;32.14;99537.56;5071162;28;20037;-54
2021/03/03 10:18:14;;;;;;;4.57;1.15;;;;;;;8.82;32.15;99488.53;5061517;28;20059;-53
2021/03/03 10:20:43;;;;;;;2.65;0.98;;;;;;;9.08;32.42;99544.38;5070424;28;20025;-56
2021/03/03 10:23:09;;;;;;;3.05;1.00;;;;;;;8.84;32.68;99543.50;5061390;28;20481;-45
2021/03/03 10:25:43;;;;;;;3.33;1.25;;;;;;;8.63;33.10;99542.50;5064986;28;20475;-45
2021/03/03 10:28:12;;;;;;;3.00;0.88;;;;;;;8.46;33.58;99529.47;5063799;28;20449;-50
2021/03/03 10:30:49;;;;;;;2.38;0.80;;;;;;;8.17;33.85;99529.00;5064642;28;20028;-47
2021/03/03 10:33:30;;;;;;;1.75;0.82;;;;;;;8.16;34.28;99528.16;5062296;28;20041;-50
2021/03/03 10:35:58;;;;;;;2.45;1.05;;;;;;;8.07;34.09;99527.97;5066277;28;20116;-54
2021/03/03 10:38:25;;;;;;;2.10;0.90;;;;;;;8.19;33.99;99530.56;5066108;28;20032;-50
2021/03/03 10:40:52;;;;;;;2.33;1.10;;;;;;;8.41;33.79;99530.78;5074291;28;20085;-48
2021/03/03 10:43:20;;;;;;;3.97;1.50;;;;;;;8.39;34.29;99538.06;5057851;28;20036;-49
2021/03/03 10:46:08;;;;;;;4.40;1.50;;;;;;;8.21;34.22;99517.13;5061080;28;20047;-51
2021/03/03 10:48:34;;;;;;;3.42;1.55;;;;;;;8.39;34.22;99522.03;5045393;28;20064;-57
2021/03/03 10:51:01;;;;;;;3.42;1.25;;;;;;;8.42;34.33;99524.47;5063607;28;20036;-56
2021/03/03 10:53:48;;;;;;;2.65;1.08;;;;;;;8.58;34.05;99524.19;5060305;28;20033;-61
2021/03/03 10:56:39;;;;;;;3.58;1.08;;;;;;;8.11;34.71;99444.16;5071150;28;20035;-53
2021/03/03 10:59:11;;;;;;;4.57;1.10;;;;;;;8.31;34.68;99503.97;5066623;28;20097;-55
2021/03/03 11:01:55;;;;;;;2.25;1.02;;;;;;;8.17;34.79;99511.19;5063279;28;20049;-52
2021/03/03 11:04:21;;;;;;;3.58;1.30;;;;;;;8.05;35.11;99496.94;5068409;28;20064;-55
2021/03/03 11:06:46;;;;;;;3.33;1.30;;;;;;;7.85;35.22;99502.97;5065256;28;20052;-60
2021/03/03 11:09:14;;;;;;;1.77;0.95;;;;;;;7.46;35.63;99469.34;5056795;28;20033;-52
2021/03/03 11:11:55;;;;;;;3.17;1.08;;;;;;;7.73;35.95;99499.38;5074223;28;20144;-58
2021/03/03 11:14:21;;;;;;;2.03;1.08;;;;;;;7.55;35.65;99493.59;5072691;28;20475;-54
2021/03/03 11:16:51;;;;;;;3.33;1.10;;;;;;;7.34;35.88;99494.19;5086396;28;20100;-54
2021/03/03 11:19:18;;;;;;;11.68;1.15;;;;;;;7.30;36.35;99482.91;5069788;28;20454;-53
2021/03/03 11:21:43;;;;;;;3.50;1.20;;;;;;;7.41;36.59;99489.28;5064260;28;20043;-62
2021/03/03 11:24:09;;;;;;;2.35;1.10;;;;;;;7.60;36.34;99508.28;5062265;28;20037;-52
2021/03/03 11:26:39;;;;;;;3.53;1.33;;;;;;;7.68;36.10;99480.19;5060713;28;20056;-54
2021/03/03 11:29:05;;;;;;;5.55;1.52;;;;;;;7.65;35.57;99437.81;5069104;28;20028;-47
2021/03/03 11:31:31;;;;;;;4.10;1.30;;;;;;;8.14;35.24;99503.41;5069486;28;20049;-55
2021/03/03 11:33:56;;;;;;;2.55;1.00;;;;;;;8.07;35.36;99507.53;5065701;28;20036;-57
2021/03/03 11:36:22;;;;;;;4.07;0.88;;;;;;;7.85;35.52;99494.97;5063303;28;20040;-48
2021/03/03 11:38:48;;;;;;;3.83;1.00;;;;;;;7.68;35.76;99501.53;5057928;28;20025;-47
2021/03/03 11:41:14;;;;;;;2.38;0.90;;;;;;;7.56;36.30;99493.47;5066318;28;20028;-48
2021/03/03 11:43:39;;;;;;;2.40;0.90;;;;;;;7.37;36.28;99504.63;5057917;28;20094;-56
2021/03/03 11:46:05;;;;;;;5.50;1.17;;;;;;;7.16;36.82;99491.91;5065011;28;20063;-46